createdAt,value
2019-05-10T00:00:42.629Z,10.32
2019-05-10T00:03:28.964Z,9.98
2019-05-10T00:06:15.617Z,8.13
2019-05-10T00:08:46.792Z,12.13
2019-05-10T00:11:25.584Z,8.48
2019-05-10T00:13:58.898Z,8.67
2019-05-10T00:16:27.835Z,7.00
2019-05-10T00:18:56.512Z,11.93
2019-05-10T00:21:25.342Z,11.37
2019-05-10T00:23:54.101Z,15.43
2019-05-10T00:26:22.931Z,8.48
2019-05-10T00:28:51.678Z,9.30
2019-05-10T00:31:20.533Z,7.50
2019-05-10T00:33:49.207Z,8.60
2019-05-10T00:36:17.970Z,8.73
2019-05-10T00:38:46.780Z,9.58
2019-05-10T00:41:15.602Z,10.03
2019-05-10T00:43:44.355Z,8.50
2019-05-10T00:46:13.179Z,11.43
2019-05-10T00:48:42.036Z,11.97
2019-05-10T00:51:10.778Z,12.55
2019-05-10T00:53:39.531Z,12.27
2019-05-10T00:56:08.378Z,10.23
2019-05-10T00:58:37.114Z,11.88
2019-05-10T01:01:05.868Z,7.25
2019-05-10T01:03:34.693Z,10.33
2019-05-10T01:06:03.624Z,16.20
2019-05-10T01:08:32.329Z,12.78
2019-05-10T01:11:01.083Z,13.90
2019-05-10T01:13:29.837Z,18.05
2019-05-10T01:15:58.587Z,22.15
2019-05-10T01:18:27.445Z,9.20
2019-05-10T01:20:56.292Z,15.90
2019-05-10T01:23:24.975Z,15.55
2019-05-10T01:25:53.751Z,13.73
2019-05-10T01:28:22.511Z,8.77
2019-05-10T01:30:51.259Z,9.50
2019-05-10T01:33:20.095Z,12.20
2019-05-10T01:35:48.842Z,14.35
2019-05-10T01:38:17.671Z,14.47
2019-05-10T01:40:46.430Z,14.58
2019-05-10T01:43:15.242Z,14.70
2019-05-10T01:45:44.008Z,11.93
2019-05-10T01:48:12.811Z,9.27
2019-05-10T01:50:41.593Z,14.55
2019-05-10T01:53:10.425Z,12.30
2019-05-10T01:55:51.780Z,8.18
2019-05-10T01:58:09.524Z,11.35
2019-05-10T02:00:38.282Z,36.20
2019-05-10T02:03:07.100Z,12.80
2019-05-10T02:05:35.878Z,14.05
2019-05-10T02:08:04.695Z,14.58
2019-05-10T02:10:33.436Z,9.35
2019-05-10T02:13:02.261Z,14.00
2019-05-10T02:15:31.019Z,12.60
2019-05-10T02:17:59.855Z,19.95
2019-05-10T02:20:28.607Z,14.43
2019-05-10T02:22:57.444Z,12.70
2019-05-10T02:25:26.185Z,9.10
2019-05-10T02:27:54.927Z,10.30
2019-05-10T02:30:23.683Z,8.77
2019-05-10T02:32:52.499Z,12.88
2019-05-10T02:35:21.206Z,11.30
2019-05-10T02:37:49.991Z,12.15
2019-05-10T02:40:18.835Z,14.20
2019-05-10T02:42:47.657Z,13.35
2019-05-10T02:45:16.559Z,11.43
2019-05-10T02:47:45.324Z,12.00
2019-05-10T02:50:14.987Z,17.25
2019-05-10T02:55:11.648Z,13.58
2019-05-10T02:57:41.358Z,21.50
2019-05-10T03:00:10.906Z,18.10
2019-05-10T03:05:08.314Z,11.83
2019-05-10T03:07:40.103Z,13.15
2019-05-10T03:10:11.081Z,11.55
2019-05-10T03:12:41.709Z,12.70
2019-05-10T03:15:13.425Z,14.07
2019-05-10T03:17:42.370Z,12.65
2019-05-10T03:20:12.285Z,14.63
2019-05-10T03:22:43.259Z,11.83
2019-05-10T03:25:13.810Z,13.55
2019-05-10T03:27:42.629Z,14.68
2019-05-10T03:30:11.855Z,14.07
2019-05-10T03:32:40.558Z,12.43
2019-05-10T03:35:09.874Z,17.03
2019-05-10T03:37:38.728Z,15.93
2019-05-10T03:40:08.635Z,26.80
2019-05-10T03:42:37.437Z,17.30
2019-05-10T03:45:07.551Z,21.48
2019-05-10T03:47:36.369Z,26.07
2019-05-10T03:50:09.125Z,21.17
2019-05-10T03:52:37.911Z,24.57
2019-05-10T03:55:06.810Z,21.77
2019-05-10T03:57:35.623Z,23.87
2019-05-10T04:00:10.112Z,12.47
2019-05-10T04:02:38.926Z,14.00
2019-05-10T04:05:08.002Z,31.57
2019-05-10T04:07:36.743Z,19.67
2019-05-10T04:10:07.074Z,19.25
2019-05-10T04:12:35.817Z,19.95
2019-05-10T04:15:07.281Z,17.93
2019-05-10T04:17:36.098Z,13.90
2019-05-10T04:20:09.190Z,12.82
2019-05-10T04:22:38.023Z,23.85
2019-05-10T04:25:06.916Z,22.35
2019-05-10T04:27:35.732Z,18.05
2019-05-10T04:30:06.371Z,13.13
2019-05-10T04:32:35.130Z,15.90
2019-05-10T04:35:05.083Z,9.75
2019-05-10T04:37:35.598Z,20.48
2019-05-10T04:40:07.588Z,16.10
2019-05-10T04:42:36.408Z,13.85
2019-05-10T04:45:06.547Z,18.00
2019-05-10T04:47:35.286Z,35.10
2019-05-10T04:50:04.543Z,39.88
2019-05-10T04:52:33.367Z,14.38
2019-05-10T04:55:02.071Z,17.20
2019-05-10T04:57:48.722Z,38.07
2019-05-10T05:00:01.202Z,14.78
2019-05-10T05:02:29.958Z,14.90
2019-05-10T05:04:58.707Z,12.13
2019-05-10T05:07:27.495Z,18.70
2019-05-10T05:09:56.832Z,21.75
2019-05-10T05:12:26.678Z,9.30
2019-05-10T05:14:56.813Z,16.87
2019-05-10T05:17:27.269Z,18.80
2019-05-10T05:19:55.997Z,13.03
2019-05-10T05:22:24.805Z,9.98
2019-05-10T05:24:55.214Z,19.92
2019-05-10T05:27:24.483Z,14.70
2019-05-10T05:29:53.268Z,22.52
2019-05-10T05:32:21.959Z,13.18
2019-05-10T05:34:50.725Z,11.40
2019-05-10T05:37:19.539Z,14.05
2019-05-10T05:39:48.380Z,16.70
2019-05-10T05:42:22.091Z,16.87
2019-05-10T05:44:47.734Z,11.88
2019-05-10T05:47:16.498Z,16.82
2019-05-10T05:49:45.315Z,18.32
2019-05-10T05:52:14.139Z,23.73
2019-05-10T05:54:42.993Z,11.10
2019-05-10T05:57:11.771Z,12.03
2019-05-10T05:59:40.587Z,10.55
2019-05-10T06:02:09.643Z,21.52
2019-05-10T06:04:40.798Z,12.18
2019-05-10T06:07:08.932Z,9.95
2019-05-10T06:09:47.050Z,11.05
2019-05-10T06:12:15.750Z,11.33
2019-05-10T06:14:50.053Z,11.00
2019-05-10T06:17:14.956Z,14.05
2019-05-10T06:19:43.822Z,12.80
2019-05-10T06:22:12.599Z,10.00
2019-05-10T06:24:41.263Z,12.37
2019-05-10T06:27:10.049Z,20.30
2019-05-10T06:29:38.867Z,15.20
2019-05-10T06:32:07.634Z,8.88
2019-05-10T06:34:38.808Z,11.83
2019-05-10T06:37:06.997Z,12.25
2019-05-10T06:39:35.792Z,7.85
2019-05-10T06:42:04.639Z,20.05
2019-05-10T06:44:33.375Z,21.52
2019-05-10T06:47:08.046Z,17.85
2019-05-10T06:49:32.553Z,9.03
2019-05-10T06:52:01.321Z,5.30
2019-05-10T06:54:30.059Z,10.30
2019-05-10T06:56:58.871Z,11.83
2019-05-10T06:59:27.562Z,12.03
2019-05-10T07:01:56.304Z,21.03
2019-05-10T07:04:24.991Z,7.93
2019-05-10T07:06:53.749Z,14.17
2019-05-10T07:09:22.417Z,11.73
2019-05-10T07:11:51.191Z,11.70
2019-05-10T07:14:25.415Z,14.05
2019-05-10T07:16:50.401Z,14.15
2019-05-10T07:19:19.094Z,14.80
2019-05-10T07:21:50.970Z,19.27
2019-05-10T07:24:24.581Z,14.68
2019-05-10T07:26:48.645Z,9.50
2019-05-10T07:29:29.732Z,10.23
2019-05-10T07:31:47.804Z,11.85
2019-05-10T07:34:17.659Z,11.70
2019-05-10T07:36:46.453Z,13.95
2019-05-10T07:39:15.138Z,11.90
2019-05-10T07:41:43.900Z,10.82
2019-05-10T07:44:12.643Z,10.40
2019-05-10T07:46:46.982Z,10.60
2019-05-10T07:49:11.727Z,15.10
2019-05-10T07:51:40.464Z,18.70
2019-05-10T07:54:09.155Z,12.45
2019-05-10T07:56:38.994Z,7.30
2019-05-10T07:59:08.315Z,8.80
2019-05-10T08:01:37.069Z,12.25
2019-05-10T08:04:05.811Z,8.30
2019-05-10T08:06:43.593Z,11.23
2019-05-10T08:09:09.637Z,10.68
2019-05-10T08:11:39.071Z,8.28
2019-05-10T08:14:11.088Z,7.33
2019-05-10T08:16:38.818Z,7.72
2019-05-10T08:19:07.671Z,13.40
2019-05-10T08:21:36.417Z,8.20
2019-05-10T08:24:10.965Z,12.28
2019-05-10T08:26:35.617Z,12.58
2019-05-10T08:29:07.516Z,9.25
2019-05-10T08:31:40.424Z,15.23
2019-05-10T08:34:06.669Z,9.80
2019-05-10T08:36:37.371Z,16.77
2019-05-10T08:39:10.650Z,17.00
2019-05-10T08:41:36.884Z,10.78
2019-05-10T08:44:15.749Z,11.40
2019-05-10T08:46:41.192Z,12.88
2019-05-10T08:49:06.574Z,12.10
2019-05-10T08:51:43.869Z,6.33
2019-05-10T08:54:05.862Z,7.10
2019-05-10T08:56:34.637Z,11.38
2019-05-10T08:59:04.055Z,6.17
2019-05-10T09:16:29.190Z,8.18
2019-05-10T09:18:59.090Z,7.58
2019-05-10T09:21:27.821Z,6.80
2019-05-10T09:24:01.581Z,17.50
2019-05-10T09:26:26.968Z,12.95
2019-05-10T09:28:57.726Z,16.97
2019-05-10T09:31:26.182Z,10.35
2019-05-10T09:33:55.015Z,16.93
2019-05-10T09:36:31.053Z,14.93
2019-05-10T09:38:54.237Z,14.83
2019-05-10T09:41:27.294Z,10.95
2019-05-10T09:43:53.823Z,9.55
2019-05-10T09:46:22.939Z,15.23
2019-05-10T09:48:54.634Z,12.53
2019-05-10T09:51:27.955Z,9.80
2019-05-10T09:53:52.652Z,12.93
2019-05-10T09:56:21.383Z,10.18
2019-05-10T09:58:50.137Z,10.68
2019-05-10T10:01:21.613Z,9.90
2019-05-10T10:03:49.395Z,8.28
2019-05-10T10:06:18.145Z,13.98
2019-05-10T10:08:51.249Z,15.72
2019-05-10T10:11:18.741Z,13.43
2019-05-10T10:13:51.957Z,12.55
2019-05-10T10:16:19.166Z,9.35
2019-05-10T10:18:48.056Z,8.53
2019-05-10T10:21:18.863Z,10.20
2019-05-10T10:23:47.358Z,9.00
2019-05-10T10:26:18.838Z,9.93
2019-05-10T10:28:49.519Z,9.40
2019-05-10T10:31:28.835Z,7.67
2019-05-10T10:33:54.588Z,14.55
2019-05-10T10:36:17.840Z,7.80
2019-05-10T10:38:49.471Z,9.75
2019-05-10T10:41:25.612Z,13.72
2019-05-10T10:43:48.453Z,11.90
2019-05-10T10:46:19.701Z,7.03
2019-05-10T10:48:49.266Z,6.97
2019-05-10T10:51:18.362Z,10.28
2019-05-10T10:53:47.200Z,7.17
2019-05-10T10:56:17.641Z,9.83
2019-05-10T10:58:49.628Z,12.00
2019-05-10T11:01:21.317Z,12.30
2019-05-10T11:03:49.046Z,7.25
2019-05-10T11:06:17.674Z,8.28
2019-05-10T11:08:46.352Z,10.80
2019-05-10T11:11:15.162Z,8.98
2019-05-10T11:13:45.888Z,6.28
2019-05-10T11:16:15.741Z,8.15
2019-05-10T11:18:44.696Z,8.08
2019-05-10T11:21:13.461Z,9.28
2019-05-10T11:23:42.225Z,7.62
2019-05-10T11:26:11.075Z,13.13
2019-05-10T11:28:43.967Z,14.20
2019-05-10T11:31:11.402Z,9.20
2019-05-10T11:33:41.440Z,7.97
2019-05-10T11:36:11.466Z,11.80
2019-05-10T11:38:42.064Z,9.85
2019-05-10T11:41:13.571Z,9.28
2019-05-10T11:43:42.015Z,15.10
2019-05-10T11:48:42.116Z,7.47
2019-05-10T11:51:15.426Z,13.28
2019-05-10T11:53:41.598Z,11.25
2019-05-10T11:56:14.014Z,12.58
2019-05-10T11:58:45.973Z,9.50
2019-05-10T12:01:17.327Z,8.15
2019-05-10T12:03:42.407Z,11.68
2019-05-10T12:06:12.198Z,17.87
2019-05-10T12:08:41.817Z,13.20
2019-05-10T12:11:25.392Z,9.93
2019-05-10T12:13:41.190Z,12.10
2019-05-10T12:16:12.369Z,10.95
2019-05-10T12:18:46.479Z,10.80
2019-05-10T12:21:11.283Z,11.33
2019-05-10T12:27:13.325Z,11.50
2019-05-10T12:28:40.893Z,11.15
2019-05-10T12:33:42.916Z,12.23
2019-05-10T12:36:13.036Z,14.23
2019-05-10T12:38:40.102Z,10.15
2019-05-10T12:41:08.799Z,24.75
2019-05-10T12:43:37.548Z,14.13
2019-05-10T12:46:06.311Z,10.40
2019-05-10T12:48:35.835Z,13.05
2019-05-10T12:51:11.567Z,15.65
2019-05-10T12:53:36.692Z,11.08
2019-05-10T12:56:05.894Z,11.38
2019-05-10T12:58:34.630Z,12.03
2019-05-10T13:01:04.182Z,12.55
2019-05-10T13:03:33.797Z,8.63
2019-05-10T13:06:02.616Z,11.68
2019-05-10T13:08:31.431Z,9.13
2019-05-10T13:11:00.340Z,10.38
2019-05-10T13:13:30.051Z,12.78
2019-05-10T13:16:03.590Z,13.48
2019-05-10T13:20:59.925Z,6.45
2019-05-10T13:23:28.743Z,7.35
2019-05-10T13:25:57.554Z,9.10
2019-05-10T13:28:26.431Z,11.90
2019-05-10T13:30:59.989Z,9.08
2019-05-10T13:33:29.006Z,18.12
2019-05-10T13:35:57.056Z,7.95
2019-05-10T13:38:26.600Z,10.50
2019-05-10T13:40:55.418Z,9.73
2019-05-10T13:43:27.058Z,15.68
2019-05-10T13:45:54.810Z,13.32
2019-05-10T13:48:26.438Z,9.93
2019-05-10T13:50:54.803Z,13.38
2019-05-10T13:53:23.478Z,8.45
2019-05-10T13:55:52.246Z,11.33
2019-05-10T13:58:20.906Z,13.68
2019-05-10T14:00:49.661Z,7.92
2019-05-10T14:03:18.351Z,14.43
2019-05-10T14:05:47.240Z,10.88
2019-05-10T14:08:15.994Z,11.57
2019-05-10T14:10:44.806Z,15.38
2019-05-10T14:13:16.672Z,9.78
2019-05-10T14:15:43.956Z,12.60
2019-05-10T14:18:12.697Z,14.23
2019-05-10T14:20:41.448Z,10.95
2019-05-10T14:23:10.127Z,13.35
2019-05-10T14:25:39.180Z,9.93
2019-05-10T14:30:37.643Z,15.32
2019-05-10T14:33:08.779Z,11.48
2019-05-10T14:35:36.732Z,16.67
2019-05-10T14:38:10.416Z,12.93
2019-05-10T14:40:35.956Z,8.60
2019-05-10T14:43:04.618Z,9.30
2019-05-10T14:45:33.433Z,9.40
2019-05-10T14:48:02.588Z,12.33
2019-05-10T14:50:31.424Z,10.80
2019-05-10T14:53:00.224Z,8.98
2019-05-10T14:55:34.784Z,17.48
2019-05-10T14:57:59.499Z,13.22
2019-05-10T15:00:28.345Z,17.32
2019-05-10T15:03:02.080Z,11.68
2019-05-10T15:05:27.493Z,10.78
2019-05-10T15:07:56.260Z,22.87
2019-05-10T15:10:25.032Z,7.70
2019-05-10T15:12:53.773Z,10.18
2019-05-10T15:15:22.454Z,16.87
2019-05-10T15:17:55.118Z,9.35
2019-05-10T15:20:21.604Z,11.73
2019-05-10T15:22:50.431Z,8.08
2019-05-10T15:25:19.253Z,11.57
2019-05-10T15:27:47.995Z,11.45
2019-05-10T15:30:17.155Z,10.95
2019-05-10T15:35:13.889Z,13.88
2019-05-10T15:37:46.381Z,12.75
2019-05-10T15:40:13.356Z,11.28
2019-05-10T15:42:42.122Z,13.25
2019-05-10T15:45:12.565Z,12.93
2019-05-10T15:47:50.769Z,14.40
2019-05-10T15:50:14.148Z,20.77
2019-05-10T15:52:46.477Z,12.33
2019-05-10T15:55:17.103Z,14.28
2019-05-10T15:57:44.113Z,19.15
2019-05-10T16:00:14.508Z,15.35
2019-05-10T16:02:44.834Z,8.63
2019-05-10T16:05:23.982Z,9.93
2019-05-10T16:07:51.702Z,12.93
2019-05-10T16:10:19.783Z,10.28
2019-05-10T16:12:49.511Z,9.58
2019-05-10T16:15:21.305Z,19.35
2019-05-10T16:17:53.758Z,12.75
2019-05-10T16:20:21.124Z,23.95
2019-05-10T16:25:21.887Z,14.05
2019-05-10T16:27:51.366Z,13.30
2019-05-10T16:30:23.917Z,12.30
2019-05-10T16:32:54.040Z,11.25
2019-05-10T16:35:37.030Z,12.20
2019-05-10T16:37:56.034Z,16.15
2019-05-10T16:40:26.649Z,12.25
2019-05-10T16:42:55.371Z,9.18
2019-05-10T16:45:26.071Z,10.95
2019-05-10T16:47:55.488Z,11.78
2019-05-10T16:50:26.192Z,11.73
2019-05-10T16:52:59.255Z,13.03
2019-05-10T16:55:25.970Z,11.10
2019-05-10T16:57:55.381Z,15.28
2019-05-10T17:00:24.709Z,16.20
2019-05-10T17:02:56.962Z,16.30
2019-05-10T17:05:27.303Z,14.70
2019-05-10T17:07:58.903Z,13.20
2019-05-10T17:10:33.024Z,10.60
2019-05-10T17:12:59.485Z,20.72
2019-05-10T17:15:34.053Z,14.50
2019-05-10T17:17:59.262Z,14.15
2019-05-10T17:20:28.507Z,16.07
2019-05-10T17:25:27.054Z,13.68
2019-05-10T17:27:58.022Z,15.40
2019-05-10T17:30:27.900Z,23.92
2019-05-10T17:32:57.811Z,22.05
2019-05-10T17:35:27.613Z,20.35
2019-05-10T17:37:56.512Z,11.30
2019-05-10T17:40:25.358Z,23.42
2019-05-10T17:42:54.197Z,18.57
2019-05-10T17:45:24.662Z,23.45
2019-05-10T17:47:53.503Z,23.12
2019-05-10T17:50:22.342Z,20.68
2019-05-10T17:52:52.183Z,18.15
2019-05-10T17:55:21.127Z,24.18
2019-05-10T17:57:54.567Z,18.02
2019-05-10T18:00:20.259Z,20.50
2019-05-10T18:02:49.139Z,21.05
2019-05-10T18:05:17.982Z,25.00
2019-05-10T18:07:46.775Z,25.62
2019-05-10T18:10:15.853Z,33.20
2019-05-10T18:12:44.669Z,28.57
2019-05-10T18:15:14.232Z,28.98
2019-05-10T18:17:42.921Z,18.95
2019-05-10T18:20:17.421Z,22.93
2019-05-10T18:22:47.144Z,17.37
2019-05-10T18:25:20.631Z,24.27
2019-05-10T18:27:47.443Z,31.37
2019-05-10T18:30:16.715Z,23.83
2019-05-10T18:32:45.397Z,27.85
2019-05-10T18:35:16.744Z,22.62
2019-05-10T18:37:46.273Z,20.30
2019-05-10T18:40:15.783Z,16.85
2019-05-10T18:45:14.441Z,23.90
2019-05-10T18:47:43.055Z,24.63
2019-05-10T18:50:12.182Z,23.55
2019-05-10T18:52:41.013Z,26.42
2019-05-10T18:55:10.046Z,18.75
2019-05-10T18:57:40.458Z,24.15
2019-05-10T19:00:09.795Z,25.00
2019-05-10T19:02:38.588Z,25.45
2019-05-10T19:05:07.516Z,23.77
2019-05-10T19:07:36.359Z,28.27
2019-05-10T19:10:07.020Z,36.35
2019-05-10T19:12:36.333Z,41.45
2019-05-10T19:17:40.397Z,37.83
2019-05-10T19:20:09.551Z,35.98
2019-05-10T19:22:41.209Z,36.58
2019-05-10T19:25:12.136Z,34.75
2019-05-10T19:27:44.725Z,33.18
2019-05-10T19:30:10.048Z,41.20
2019-05-10T19:32:38.936Z,25.75
2019-05-10T19:35:08.044Z,37.15
2019-05-10T19:37:36.801Z,27.98
2019-05-10T19:40:07.791Z,29.40
2019-05-10T19:42:37.071Z,27.62
2019-05-10T19:45:12.752Z,29.05
2019-05-10T19:47:38.186Z,72.10
2019-05-10T19:50:09.926Z,27.95
2019-05-10T19:52:40.272Z,31.40
2019-05-10T19:55:13.018Z,24.75
2019-05-10T19:57:39.666Z,22.73
2019-05-10T20:00:09.513Z,31.35
2019-05-10T20:02:38.332Z,28.92
2019-05-10T20:05:07.855Z,28.38
2019-05-10T20:12:36.007Z,28.87
2019-05-10T20:15:07.152Z,30.90
2019-05-10T20:17:35.911Z,28.52
2019-05-10T20:20:06.862Z,23.05
2019-05-10T20:22:36.351Z,31.40
2019-05-10T20:25:07.553Z,37.38
2019-05-10T20:27:39.222Z,26.42
2019-05-10T20:30:09.686Z,20.52
2019-05-10T20:32:38.521Z,27.52
2019-05-10T20:35:07.899Z,29.18
2019-05-10T20:37:36.669Z,27.90
2019-05-10T20:40:06.906Z,26.07
2019-05-10T20:42:35.751Z,31.27
2019-05-10T20:45:07.987Z,36.17
2019-05-10T20:47:35.165Z,35.83
2019-05-10T20:50:04.030Z,32.93
2019-05-10T20:52:32.876Z,32.70
2019-05-10T20:55:01.876Z,29.80
2019-05-10T20:57:31.011Z,32.53
2019-05-10T20:59:59.789Z,34.08
2019-05-10T21:02:28.615Z,29.32
2019-05-10T21:04:57.331Z,30.32
2019-05-10T21:07:26.060Z,32.37
2019-05-10T21:09:54.823Z,25.55
2019-05-10T21:12:23.638Z,34.90
2019-05-10T21:14:52.342Z,30.52
2019-05-10T21:17:21.117Z,29.50
2019-05-10T21:19:49.936Z,20.62
2019-05-10T21:22:18.750Z,24.23
2019-05-10T21:24:47.474Z,25.55
2019-05-10T21:27:16.304Z,19.03
2019-05-10T21:29:45.116Z,22.37
2019-05-10T21:32:13.850Z,26.52
2019-05-10T21:34:42.678Z,30.57
2019-05-10T21:37:11.375Z,28.45
2019-05-10T21:39:40.134Z,31.07
2019-05-10T21:42:08.892Z,23.92
2019-05-10T21:44:37.640Z,20.65
2019-05-10T21:47:06.317Z,26.93
2019-05-10T21:49:35.131Z,30.13
2019-05-10T21:52:03.955Z,27.95
2019-05-10T21:54:32.911Z,25.52
2019-05-10T21:57:01.880Z,24.43
2019-05-10T21:59:30.790Z,26.62
2019-05-10T22:01:59.546Z,24.82
2019-05-10T22:04:28.383Z,24.60
2019-05-10T22:06:57.058Z,27.70
2019-05-10T22:09:25.871Z,26.03
2019-05-10T22:11:54.614Z,27.80
2019-05-10T22:14:23.407Z,23.87
2019-05-10T22:16:52.088Z,27.80
2019-05-10T22:19:20.941Z,28.97
2019-05-10T22:21:49.688Z,37.88
2019-05-10T22:24:18.546Z,29.77
2019-05-10T22:26:47.371Z,18.92
2019-05-10T22:29:16.118Z,33.67
2019-05-10T22:31:44.807Z,24.90
2019-05-10T22:34:13.636Z,19.30
2019-05-10T22:36:42.394Z,21.77
2019-05-10T22:39:11.137Z,17.30
2019-05-10T22:41:39.899Z,19.47
2019-05-10T22:44:08.651Z,21.48
2019-05-10T22:46:37.322Z,17.12
2019-05-10T22:49:06.134Z,19.70
2019-05-10T22:51:34.971Z,21.70
2019-05-10T22:54:03.647Z,21.00
2019-05-10T22:56:32.464Z,18.97
2019-05-10T22:59:01.149Z,21.02
2019-05-10T23:01:29.968Z,17.57
2019-05-10T23:03:58.641Z,16.75
2019-05-10T23:06:27.462Z,16.67
2019-05-10T23:08:56.199Z,14.90
2019-05-10T23:11:24.887Z,18.75
2019-05-10T23:13:53.605Z,16.97
2019-05-10T23:16:22.341Z,17.30
2019-05-10T23:18:51.031Z,15.48
2019-05-10T23:21:19.844Z,17.60
2019-05-10T23:23:48.515Z,21.50
2019-05-10T23:26:17.333Z,20.33
2019-05-10T23:28:46.086Z,16.27
2019-05-10T23:31:14.851Z,20.10
2019-05-10T23:33:43.609Z,21.33
2019-05-10T23:36:12.447Z,20.45
2019-05-10T23:38:41.283Z,18.62
2019-05-10T23:41:10.047Z,17.92
2019-05-10T23:43:38.783Z,18.25
2019-05-10T23:46:07.541Z,16.23
2019-05-10T23:48:36.224Z,18.90
2019-05-10T23:51:05.053Z,21.83
2019-05-10T23:53:33.817Z,21.02
2019-05-10T23:56:02.670Z,19.48
2019-05-10T23:58:31.355Z,18.27
